Time;durP1;ratioP1;P1;durP2;ratioP2;P2;SDS_P1;SDS_P2;PMS_P1;PMS_P2;Temp;Humidity;BMP_temperature;BMP_pressure;BME280_temperature;BME280_humidity;BME280_pressure;Samples;Min_cycle;Max_cycle;Signal;HPM_P1;HPM_P2
2022/06/09 00:01:11;;;;;;;5.70;4.73;;;16.30;99.90;;;;;;4971141;28;20427;-75
2022/06/09 00:03:43;;;;;;;6.37;4.70;;;16.30;99.90;;;;;;4966546;28;20423;-75
2022/06/09 00:06:10;;;;;;;7.40;5.30;;;16.30;99.90;;;;;;4968214;28;20446;-76
2022/06/09 00:08:38;;;;;;;5.60;5.00;;;16.30;99.90;;;;;;5005292;28;20466;-75
2022/06/09 00:11:06;;;;;;;7.07;4.60;;;16.30;99.90;;;;;;4991001;28;20426;-76
2022/06/09 00:13:34;;;;;;;8.00;4.73;;;16.20;99.90;;;;;;4988353;28;20922;-75
2022/06/09 00:16:00;;;;;;;7.30;4.93;;;16.20;99.90;;;;;;4963733;28;20435;-75
2022/06/09 00:18:26;;;;;;;6.07;4.20;;;16.20;99.90;;;;;;4970942;28;20419;-75
2022/06/09 00:20:52;;;;;;;5.90;4.60;;;16.20;99.90;;;;;;4970527;28;20494;-76
2022/06/09 00:23:18;;;;;;;7.00;4.70;;;16.10;99.90;;;;;;4970925;28;20188;-75
2022/06/09 00:25:45;;;;;;;6.10;4.60;;;16.10;99.90;;;;;;4971839;28;20200;-75
2022/06/09 00:28:11;;;;;;;7.00;4.47;;;16.20;99.90;;;;;;4971413;28;20455;-75
2022/06/09 00:30:36;;;;;;;6.17;5.00;;;16.20;99.90;;;;;;4969960;28;20450;-76
2022/06/09 00:33:02;;;;;;;5.73;4.47;;;16.20;99.90;;;;;;4969836;28;20443;-75
2022/06/09 00:35:28;;;;;;;5.07;4.43;;;16.10;99.90;;;;;;4971239;28;20168;-75
2022/06/09 00:37:55;;;;;;;5.87;4.83;;;16.10;99.90;;;;;;4970980;28;20458;-75
2022/06/09 00:40:21;;;;;;;6.43;4.93;;;16.10;99.90;;;;;;4970443;28;20868;-75
2022/06/09 00:42:46;;;;;;;7.03;4.87;;;16.10;99.90;;;;;;4971130;28;20407;-76
2022/06/09 00:45:29;;;;;;;8.40;4.73;;;16.00;99.90;;;;;;4966684;28;20250;-74
2022/06/09 00:48:23;;;;;;;8.33;4.90;;;16.00;99.90;;;;;;4970226;28;20562;-73
2022/06/09 00:51:04;;;;;;;6.10;5.40;;;16.00;99.90;;;;;;4953847;28;20506;-75
2022/06/09 00:53:34;;;;;;;6.10;5.20;;;16.00;99.90;;;;;;4971122;28;20477;-75
2022/06/09 00:56:02;;;;;;;6.00;5.40;;;16.00;99.90;;;;;;4963695;28;20968;-75
2022/06/09 00:58:32;;;;;;;7.03;5.30;;;16.10;99.90;;;;;;4971544;28;20474;-75
2022/06/09 01:01:03;;;;;;;6.20;5.20;;;16.10;99.90;;;;;;4966538;28;20420;-75
2022/06/09 01:03:38;;;;;;;6.30;5.17;;;16.20;99.90;;;;;;4963381;28;20759;-74
2022/06/09 01:06:10;;;;;;;8.63;5.73;;;16.10;99.90;;;;;;4963642;28;20442;-76
2022/06/09 01:08:42;;;;;;;8.07;5.13;;;16.10;99.90;;;;;;4970974;28;20462;-76
2022/06/09 01:11:08;;;;;;;7.50;5.53;;;16.00;99.90;;;;;;4970823;28;20855;-76
2022/06/09 01:13:33;;;;;;;6.00;5.40;;;16.00;99.90;;;;;;4970952;28;20411;-75
2022/06/09 01:16:10;;;;;;;5.57;4.97;;;16.00;99.90;;;;;;4963048;28;20279;-75
2022/06/09 01:18:48;;;;;;;9.70;6.00;;;16.00;99.90;;;;;;4970649;28;20171;-76
2022/06/09 01:21:47;;;;;;;8.80;5.83;;;16.00;99.90;;;;;;4965222;28;20736;-75
2022/06/09 01:24:47;;;;;;;8.20;5.60;;;15.90;99.90;;;;;;4969335;28;20431;-75
2022/06/09 01:27:46;;;;;;;9.27;5.17;;;15.90;99.90;;;;;;4971365;28;20431;-76
2022/06/09 01:30:19;;;;;;;8.10;5.67;;;15.90;99.90;;;;;;4970965;28;21000;-74
2022/06/09 01:33:11;;;;;;;8.00;5.93;;;15.80;99.90;;;;;;4970077;28;20475;-75
2022/06/09 01:35:44;;;;;;;9.03;6.10;;;15.80;99.90;;;;;;4966448;28;20432;-76
2022/06/09 01:38:10;;;;;;;9.43;6.00;;;15.80;99.90;;;;;;4970830;28;20435;-75
2022/06/09 01:40:36;;;;;;;6.03;5.43;;;15.80;99.90;;;;;;4971134;28;20411;-75
2022/06/09 01:43:04;;;;;;;7.37;6.07;;;15.80;99.90;;;;;;4969750;28;20223;-75
2022/06/09 01:45:57;;;;;;;8.30;6.33;;;15.70;99.90;;;;;;4963387;28;20424;-76
2022/06/09 01:48:25;;;;;;;6.90;5.67;;;15.70;99.90;;;;;;4969925;28;20462;-76
2022/06/09 01:50:59;;;;;;;6.73;4.97;;;15.70;99.90;;;;;;4969296;28;20807;-76
2022/06/09 01:53:46;;;;;;;7.50;6.40;;;15.70;99.90;;;;;;4966653;28;20415;-75
2022/06/09 01:56:18;;;;;;;9.73;6.37;;;15.70;99.90;;;;;;4976724;28;20430;-75
2022/06/09 01:58:51;;;;;;;10.80;5.93;;;15.60;99.90;;;;;;4990079;28;20406;-75
2022/06/09 02:01:21;;;;;;;7.63;5.67;;;15.60;99.90;;;;;;4989779;28;20407;-75
2022/06/09 02:03:49;;;;;;;6.00;4.90;;;15.50;99.90;;;;;;5003964;28;20431;-76
2022/06/09 02:06:16;;;;;;;9.40;5.90;;;15.40;99.90;;;;;;4989506;28;20439;-75
2022/06/09 02:08:42;;;;;;;8.87;5.37;;;15.40;99.90;;;;;;4989520;28;20461;-75
2022/06/09 02:11:11;;;;;;;5.83;5.23;;;15.40;99.90;;;;;;4989486;28;20927;-75
2022/06/09 02:13:41;;;;;;;6.40;5.43;;;15.30;99.90;;;;;;4973436;28;20245;-75
2022/06/09 02:16:11;;;;;;;6.87;4.50;;;15.20;99.90;;;;;;4961865;28;20435;-75
2022/06/09 02:18:41;;;;;;;7.20;4.90;;;15.20;99.90;;;;;;4969428;28;20940;-75
2022/06/09 02:21:16;;;;;;;6.33;4.80;;;15.20;99.90;;;;;;4969150;28;21123;-75
2022/06/09 02:23:42;;;;;;;4.67;4.27;;;15.20;99.90;;;;;;4968111;28;20414;-75
2022/06/09 02:26:07;;;;;;;13.20;4.80;;;15.20;99.90;;;;;;4966913;28;20489;-75
2022/06/09 02:28:33;;;;;;;6.73;4.50;;;15.20;99.90;;;;;;4964653;28;20459;-75
2022/06/09 02:30:59;;;;;;;8.07;5.73;;;15.20;99.90;;;;;;4967963;28;20184;-75
2022/06/09 02:33:25;;;;;;;6.57;5.10;;;15.10;99.90;;;;;;4969049;28;20527;-75
2022/06/09 02:35:51;;;;;;;7.90;5.03;;;15.10;99.90;;;;;;4968577;28;20606;-75
2022/06/09 02:38:18;;;;;;;7.20;4.73;;;15.00;99.90;;;;;;4969233;28;20194;-75
2022/06/09 02:40:44;;;;;;;5.10;4.60;;;15.00;99.90;;;;;;4970193;28;20419;-75
2022/06/09 02:43:10;;;;;;;12.27;5.73;;;15.00;99.90;;;;;;4969198;28;20415;-74
2022/06/09 02:45:36;;;;;;;7.77;5.20;;;15.10;99.90;;;;;;4961569;28;20796;-76
2022/06/09 02:48:02;;;;;;;6.23;4.70;;;15.10;99.90;;;;;;4969104;28;20196;-76
2022/06/09 02:50:29;;;;;;;7.53;5.20;;;15.20;99.90;;;;;;4969517;28;20170;-76
2022/06/09 02:52:55;;;;;;;10.27;5.40;;;15.20;99.90;;;;;;4966549;28;20781;-75
2022/06/09 02:55:20;;;;;;;6.40;4.80;;;15.20;99.90;;;;;;4970921;28;20409;-76
2022/06/09 02:57:46;;;;;;;7.00;5.17;;;15.30;99.90;;;;;;4971713;28;20267;-75
2022/06/09 03:00:14;;;;;;;7.83;4.37;;;15.20;99.90;;;;;;4973373;28;20182;-75
2022/06/09 03:02:41;;;;;;;9.20;4.40;;;15.30;99.90;;;;;;4970492;28;20473;-75
2022/06/09 03:05:07;;;;;;;6.63;5.10;;;15.30;99.90;;;;;;4972831;28;20482;-75
2022/06/09 03:07:33;;;;;;;8.20;5.07;;;15.30;99.90;;;;;;4970155;28;20443;-76
2022/06/09 03:09:59;;;;;;;7.00;4.70;;;15.30;99.90;;;;;;4973048;28;20419;-75
2022/06/09 03:12:24;;;;;;;8.00;4.30;;;15.20;99.90;;;;;;4972374;28;20179;-74
2022/06/09 03:14:50;;;;;;;4.90;4.27;;;15.30;99.90;;;;;;4970589;28;20174;-75
2022/06/09 03:17:15;;;;;;;4.43;4.03;;;15.20;99.90;;;;;;4966480;28;20199;-76
2022/06/09 03:19:41;;;;;;;5.00;3.70;;;15.30;99.90;;;;;;4971040;28;20215;-75
2022/06/09 03:22:07;;;;;;;5.83;3.53;;;15.20;99.90;;;;;;4972024;28;20180;-75
2022/06/09 03:24:33;;;;;;;10.97;3.67;;;15.10;99.90;;;;;;4973129;28;20172;-75
2022/06/09 03:26:59;;;;;;;3.40;2.80;;;15.00;99.90;;;;;;4971255;28;20466;-75
2022/06/09 03:29:25;;;;;;;9.30;3.87;;;14.90;99.90;;;;;;4972569;28;20914;-75
2022/06/09 03:31:51;;;;;;;3.93;3.10;;;14.90;99.90;;;;;;4970739;28;20179;-75
2022/06/09 03:34:18;;;;;;;10.23;4.07;;;14.90;99.90;;;;;;4971369;28;20172;-74
2022/06/09 03:36:44;;;;;;;4.37;3.10;;;14.90;99.90;;;;;;4972454;28;20238;-75
2022/06/09 03:39:12;;;;;;;6.27;3.20;;;14.90;99.90;;;;;;4972165;28;20427;-75
2022/06/09 03:41:38;;;;;;;3.40;3.10;;;14.90;99.90;;;;;;4971950;28;20502;-75
2022/06/09 03:44:05;;;;;;;6.33;3.67;;;14.90;99.90;;;;;;4972277;28;20530;-74
2022/06/09 03:46:30;;;;;;;8.40;3.47;;;14.80;99.90;;;;;;4962620;28;20202;-75
2022/06/09 03:48:56;;;;;;;7.07;3.93;;;14.80;99.90;;;;;;4971436;28;20533;-75
2022/06/09 03:51:21;;;;;;;3.97;3.57;;;14.90;99.90;;;;;;4971162;28;20203;-76
2022/06/09 03:53:47;;;;;;;6.33;3.63;;;14.80;99.90;;;;;;4966832;28;20172;-75
2022/06/09 03:56:19;;;;;;;7.87;4.33;;;14.80;99.90;;;;;;4972157;28;20192;-75
2022/06/09 03:58:45;;;;;;;4.43;3.97;;;14.80;99.90;;;;;;4972044;28;20184;-74
2022/06/09 04:01:17;;;;;;;4.40;3.87;;;14.80;99.90;;;;;;4972413;28;20525;-75
2022/06/09 04:03:47;;;;;;;7.53;4.90;;;14.70;99.90;;;;;;4970911;28;20474;-75
2022/06/09 04:06:17;;;;;;;7.60;4.67;;;14.70;99.90;;;;;;4971373;28;20431;-75
2022/06/09 04:08:42;;;;;;;5.73;4.00;;;14.70;99.90;;;;;;4970904;28;20459;-76
2022/06/09 04:11:09;;;;;;;6.87;4.50;;;14.70;99.90;;;;;;4971334;28;20881;-75
2022/06/09 04:13:36;;;;;;;7.53;4.77;;;14.60;99.90;;;;;;4970194;28;20218;-75
2022/06/09 04:16:03;;;;;;;7.20;4.10;;;14.60;99.90;;;;;;4962089;28;20451;-75
2022/06/09 04:18:29;;;;;;;5.03;4.00;;;14.60;99.90;;;;;;4971063;28;20839;-75
2022/06/09 04:20:54;;;;;;;6.87;4.30;;;14.60;99.90;;;;;;4971040;28;20549;-75
2022/06/09 04:23:20;;;;;;;6.53;4.30;;;14.50;99.90;;;;;;4969509;28;20258;-75
2022/06/09 04:25:45;;;;;;;5.13;4.00;;;14.50;99.90;;;;;;4971765;28;20199;-74
2022/06/09 04:28:11;;;;;;;4.57;3.67;;;14.50;99.90;;;;;;4964260;28;20686;-75
2022/06/09 04:30:36;;;;;;;10.30;4.47;;;14.50;99.90;;;;;;4971396;28;20654;-75
2022/06/09 04:33:02;;;;;;;5.20;4.20;;;14.50;99.90;;;;;;4969947;28;20322;-75
2022/06/09 04:35:28;;;;;;;5.33;3.80;;;14.50;99.90;;;;;;4971447;28;20542;-75
2022/06/09 04:38:03;;;;;;;6.90;4.47;;;14.60;99.90;;;;;;4970862;28;20167;-75
2022/06/09 04:40:32;;;;;;;5.97;4.77;;;14.60;99.90;;;;;;4972121;28;20172;-75
2022/06/09 04:42:58;;;;;;;9.67;5.20;;;14.70;99.90;;;;;;4970584;28;20407;-75
2022/06/09 04:45:23;;;;;;;7.23;5.20;;;14.70;99.90;;;;;;4964279;28;20733;-75
2022/06/09 04:47:49;;;;;;;7.23;4.90;;;14.70;99.90;;;;;;4968830;28;20643;-75
2022/06/09 04:50:16;;;;;;;5.90;4.70;;;14.80;99.90;;;;;;4971111;28;20222;-75
2022/06/09 04:52:42;;;;;;;9.50;4.40;;;14.90;99.90;;;;;;4970179;28;20164;-75
2022/06/09 04:55:08;;;;;;;7.93;4.87;;;14.90;99.90;;;;;;4969845;28;20411;-76
2022/06/09 04:57:34;;;;;;;8.63;4.47;;;14.90;99.90;;;;;;4970952;28;20180;-75
2022/06/09 05:00:00;;;;;;;6.97;4.53;;;14.90;99.90;;;;;;4969403;28;20942;-75
2022/06/09 05:02:26;;;;;;;9.43;4.70;;;14.90;99.90;;;;;;4968327;28;20172;-76
2022/06/09 05:04:51;;;;;;;12.70;5.20;;;14.90;99.90;;;;;;4970087;28;20498;-75
2022/06/09 05:07:18;;;;;;;5.83;4.10;;;15.00;99.90;;;;;;4969711;28;20238;-75
2022/06/09 05:09:43;;;;;;;5.67;4.50;;;15.00;99.90;;;;;;4970644;28;20474;-75
2022/06/09 05:12:09;;;;;;;9.63;5.07;;;15.00;99.90;;;;;;4970244;28;20191;-75
2022/06/09 05:14:34;;;;;;;6.27;4.40;;;15.00;99.90;;;;;;4970185;28;20201;-75
2022/06/09 05:17:00;;;;;;;5.07;3.90;;;15.10;99.90;;;;;;4961269;28;20666;-75
2022/06/09 05:19:25;;;;;;;8.90;4.00;;;15.10;99.90;;;;;;4968908;28;20171;-75
2022/06/09 05:21:51;;;;;;;5.63;4.13;;;15.10;99.90;;;;;;4969968;28;20176;-75
2022/06/09 05:24:16;;;;;;;5.60;3.93;;;15.10;99.90;;;;;;4968527;28;20492;-74
2022/06/09 05:26:42;;;;;;;9.70;4.03;;;15.20;99.90;;;;;;4970531;28;20214;-74
2022/06/09 05:29:08;;;;;;;12.10;4.50;;;15.20;99.90;;;;;;4970020;28;20203;-75
2022/06/09 05:31:33;;;;;;;6.13;3.47;;;15.10;99.90;;;;;;4969811;28;20172;-76
2022/06/09 05:33:59;;;;;;;4.73;3.60;;;15.40;99.90;;;;;;4969481;28;20415;-75
2022/06/09 05:36:24;;;;;;;7.63;4.00;;;15.50;99.90;;;;;;4968534;28;20196;-75
2022/06/09 05:47:02;;;;;;;4.80;3.50;;;15.90;99.90;;;;;;4962410;28;20446;-75
2022/06/09 05:49:30;;;;;;;4.90;3.53;;;15.90;99.90;;;;;;4969778;28;20757;-74
2022/06/09 05:51:56;;;;;;;6.47;3.70;;;16.00;99.90;;;;;;4969734;28;20419;-75
2022/06/09 05:54:21;;;;;;;7.63;4.30;;;15.90;99.90;;;;;;4964456;28;20474;-75
2022/06/09 05:56:47;;;;;;;8.67;3.73;;;16.00;99.90;;;;;;4970092;28;20280;-75
2022/06/09 05:59:12;;;;;;;6.83;3.97;;;16.00;99.90;;;;;;4970095;28;20179;-75
2022/06/09 06:01:38;;;;;;;6.07;3.80;;;16.10;99.90;;;;;;4968096;28;20284;-75
2022/06/09 06:04:05;;;;;;;5.23;3.60;;;16.20;99.90;;;;;;4969354;28;20294;-74
2022/06/09 06:06:33;;;;;;;6.23;3.70;;;16.30;99.90;;;;;;4972001;28;20275;-75
2022/06/09 06:08:59;;;;;;;5.17;3.87;;;16.50;99.90;;;;;;4968243;28;20467;-74
2022/06/09 06:11:25;;;;;;;7.03;4.33;;;16.60;99.90;;;;;;4969469;28;20404;-74
2022/06/09 06:13:50;;;;;;;9.67;3.57;;;16.70;99.90;;;;;;4969707;28;20420;-75
2022/06/09 06:16:16;;;;;;;12.33;4.60;;;16.80;99.90;;;;;;4961251;28;20187;-74
2022/06/09 06:18:42;;;;;;;11.40;4.60;;;16.80;99.90;;;;;;4969001;28;20187;-75
2022/06/09 06:21:07;;;;;;;4.50;4.10;;;16.90;99.90;;;;;;4969017;28;20175;-74
2022/06/09 06:23:33;;;;;;;9.50;4.20;;;17.10;99.90;;;;;;4969173;28;20176;-73
2022/06/09 06:25:59;;;;;;;6.80;4.23;;;17.40;99.90;;;;;;4969352;28;20192;-74
2022/06/09 06:28:25;;;;;;;10.90;5.20;;;17.50;99.90;;;;;;4964920;28;20346;-75
2022/06/09 06:30:51;;;;;;;6.17;3.90;;;17.50;99.90;;;;;;4973176;28;20226;-75
2022/06/09 06:33:17;;;;;;;13.10;4.57;;;17.60;99.90;;;;;;4972585;28;20755;-74
2022/06/09 06:35:43;;;;;;;8.80;4.13;;;17.70;99.90;;;;;;4973241;28;20723;-74
2022/06/09 06:38:08;;;;;;;10.63;4.50;;;17.90;99.90;;;;;;4973047;28;20538;-75
2022/06/09 06:40:35;;;;;;;7.90;4.33;;;18.00;99.90;;;;;;4973791;28;20422;-74
2022/06/09 06:43:01;;;;;;;6.10;4.40;;;18.20;99.90;;;;;;4972623;28;20221;-75
2022/06/09 06:45:27;;;;;;;7.17;4.47;;;18.10;99.90;;;;;;4964724;28;20516;-75
2022/06/09 06:47:54;;;;;;;12.43;4.60;;;18.00;99.90;;;;;;4971411;28;20451;-75
2022/06/09 06:50:20;;;;;;;6.27;4.03;;;17.80;99.90;;;;;;4973026;28;20986;-74
2022/06/09 06:52:46;;;;;;;7.30;4.20;;;17.70;99.90;;;;;;4972067;28;20491;-74
2022/06/09 06:55:16;;;;;;;8.70;4.03;;;17.80;99.90;;;;;;4973391;28;20195;-75
2022/06/09 06:57:42;;;;;;;13.23;4.03;;;17.90;99.90;;;;;;4973053;28;20263;-75
2022/06/09 07:00:10;;;;;;;6.40;3.60;;;18.00;99.90;;;;;;4973106;28;20788;-74
2022/06/09 07:02:35;;;;;;;6.60;4.10;;;18.00;99.90;;;;;;4970774;28;20254;-75
2022/06/09 07:05:01;;;;;;;8.60;4.17;;;18.20;99.90;;;;;;4970763;28;20564;-73
2022/06/09 07:07:27;;;;;;;6.90;3.53;;;18.30;99.90;;;;;;4972036;28;20270;-75
2022/06/09 07:09:52;;;;;;;4.80;3.90;;;18.40;99.90;;;;;;4972939;28;20415;-75
2022/06/09 07:12:19;;;;;;;8.40;3.97;;;18.50;97.10;;;;;;4972271;28;20232;-75
2022/06/09 07:14:45;;;;;;;7.37;4.20;;;18.50;98.50;;;;;;4971634;28;20551;-75
2022/06/09 07:17:10;;;;;;;7.20;3.80;;;18.60;97.50;;;;;;4964096;28;20427;-75
2022/06/09 07:19:36;;;;;;;11.13;3.87;;;18.80;94.90;;;;;;4971963;28;20176;-75
2022/06/09 07:22:02;;;;;;;11.27;4.07;;;19.10;90.50;;;;;;4971123;28;20183;-75
2022/06/09 07:24:28;;;;;;;7.03;3.50;;;19.20;90.40;;;;;;4970909;28;20260;-75
2022/06/09 07:26:54;;;;;;;6.60;3.20;;;19.50;90.40;;;;;;4972710;28;20432;-75
2022/06/09 07:29:20;;;;;;;6.87;3.57;;;19.50;75.30;;;;;;4972410;28;20466;-74
2022/06/09 07:31:45;;;;;;;8.97;3.20;;;19.70;66.70;;;;;;4971856;28;20226;-75
2022/06/09 07:34:11;;;;;;;9.87;3.23;;;19.80;59.50;;;;;;4971356;28;20172;-75
2022/06/09 07:36:38;;;;;;;6.93;2.90;;;19.90;49.40;;;;;;4972285;28;20192;-75
2022/06/09 07:39:04;;;;;;;6.73;2.93;;;20.20;52.70;;;;;;4972040;28;20173;-74
2022/06/09 07:41:30;;;;;;;6.57;2.63;;;20.30;46.80;;;;;;4971431;28;20746;-75
2022/06/09 07:43:57;;;;;;;7.83;2.67;;;20.50;46.80;;;;;;4971992;28;20179;-75
2022/06/09 07:46:22;;;;;;;9.83;3.40;;;20.70;47.10;;;;;;4964057;28;20203;-75
2022/06/09 07:48:48;;;;;;;8.50;2.70;;;20.90;43.90;;;;;;4969850;28;20818;-76
2022/06/09 07:51:13;;;;;;;8.67;3.00;;;20.70;47.10;;;;;;4971298;28;20702;-75
2022/06/09 07:53:40;;;;;;;5.57;3.00;;;20.90;47.00;;;;;;4966528;28;20679;-75
2022/06/09 07:56:06;;;;;;;4.90;2.80;;;20.80;37.30;;;;;;4970474;28;20192;-75
2022/06/09 07:58:32;;;;;;;8.50;3.20;;;20.40;41.00;;;;;;4972040;28;20411;-75
2022/06/09 08:00:58;;;;;;;8.93;3.67;;;20.40;46.80;;;;;;4971465;28;20510;-74
2022/06/09 08:03:26;;;;;;;7.90;3.23;;;20.60;46.70;;;;;;4972933;28;20505;-74
2022/06/09 08:05:52;;;;;;;9.77;3.53;;;20.40;36.20;;;;;;4971651;28;20728;-75
2022/06/09 08:08:17;;;;;;;9.00;3.37;;;20.30;43.60;;;;;;4971583;28;20455;-75
2022/06/09 08:10:44;;;;;;;9.30;4.27;;;20.40;35.60;;;;;;4970732;28;20849;-74
2022/06/09 08:13:11;;;;;;;8.80;3.33;;;20.90;39.60;;;;;;4971089;28;20171;-76
2022/06/09 08:15:37;;;;;;;7.80;3.47;;;21.60;39.50;;;;;;4963557;28;20408;-75
2022/06/09 08:18:03;;;;;;;8.03;3.53;;;22.30;26.10;;;;;;4970659;28;20426;-75
2022/06/09 08:20:31;;;;;;;10.40;3.33;;;22.70;23.50;;;;;;4971445;28;20415;-76
2022/06/09 08:23:10;;;;;;;10.43;3.57;;;22.80;20.70;;;;;;4970548;28;20411;-75
2022/06/09 08:25:37;;;;;;;9.87;4.43;;;22.80;19.00;;;;;;4971056;28;20414;-75
2022/06/09 08:28:04;;;;;;;6.80;3.40;;;22.80;19.00;;;;;;4981246;28;20454;-75
2022/06/09 08:30:30;;;;;;;5.00;3.20;;;22.70;21.00;;;;;;5004199;28;20434;-76
2022/06/09 08:32:59;;;;;;;6.47;3.57;;;22.70;18.70;;;;;;4987771;28;20461;-75
2022/06/09 08:35:26;;;;;;;7.10;3.33;;;22.40;14.70;;;;;;4990554;28;20464;-75
2022/06/09 08:37:53;;;;;;;6.07;3.30;;;22.30;15.70;;;;;;4988857;28;20425;-75
2022/06/09 08:40:22;;;;;;;6.67;3.30;;;22.20;14.50;;;;;;4990987;28;20731;-76
2022/06/09 08:42:52;;;;;;;8.03;3.40;;;21.80;18.30;;;;;;4989818;28;20422;-76
2022/06/09 08:45:32;;;;;;;7.67;3.70;;;22.90;20.50;;;;;;4967545;28;20519;-75
2022/06/09 08:48:00;;;;;;;8.83;3.30;;;21.40;19.40;;;;;;4970249;28;20458;-75
2022/06/09 08:50:54;;;;;;;5.63;3.50;;;21.50;20.10;;;;;;4970939;28;20415;-75
2022/06/09 08:53:25;;;;;;;8.10;2.80;;;21.70;17.70;;;;;;4969588;28;21026;-75
2022/06/09 08:55:58;;;;;;;7.00;3.37;;;22.30;16.60;;;;;;4971021;28;20545;-75
2022/06/09 08:58:28;;;;;;;8.90;3.03;;;22.60;16.60;;;;;;4971027;28;20414;-74
2022/06/09 09:01:02;;;;;;;7.90;3.53;;;22.60;9.90;;;;;;4970615;28;20850;-75
2022/06/09 09:03:34;;;;;;;9.67;3.67;;;22.00;7.40;;;;;;4970018;28;20406;-75
2022/06/09 09:06:24;;;;;;;8.40;3.67;;;21.90;14.80;;;;;;4970272;28;20439;-75
2022/06/09 09:08:51;;;;;;;10.07;3.50;;;21.80;13.20;;;;;;4970054;28;20470;-75
2022/06/09 09:11:25;;;;;;;8.30;3.73;;;21.60;13.90;;;;;;4970308;28;20726;-75
2022/06/09 09:13:59;;;;;;;7.90;3.90;;;21.60;13.50;;;;;;4970663;28;20409;-75
2022/06/09 09:16:44;;;;;;;6.83;3.47;;;22.00;11.30;;;;;;4962507;28;20446;-74
2022/06/09 09:19:35;;;;;;;7.30;3.80;;;22.20;10.70;;;;;;4970187;28;20429;-75
2022/06/09 09:22:19;;;;;;;7.67;3.73;;;22.10;9.50;;;;;;4970013;28;20414;-76
2022/06/09 09:25:28;;;;;;;7.50;3.77;;;22.10;8.80;;;;;;4970520;28;20406;-74
2022/06/09 09:28:05;;;;;;;8.00;4.30;;;22.10;8.60;;;;;;4960397;28;20450;-76
2022/06/09 09:30:59;;;;;;;10.03;4.63;;;21.80;7.00;;;;;;4970416;28;20403;-75
2022/06/09 09:33:25;;;;;;;10.30;4.03;;;21.70;6.90;;;;;;4969352;28;20414;-75
2022/06/09 09:35:55;;;;;;;6.60;4.00;;;21.90;8.90;;;;;;4970143;28;20443;-76
2022/06/09 09:38:22;;;;;;;11.70;4.07;;;21.80;7.60;;;;;;4969885;28;20271;-74
2022/06/09 09:40:50;;;;;;;11.47;3.70;;;21.70;9.60;;;;;;4969244;28;20501;-75
2022/06/09 09:43:24;;;;;;;10.03;3.50;;;21.70;9.60;;;;;;4967895;28;20408;-75
2022/06/09 09:45:55;;;;;;;7.93;4.07;;;21.60;7.70;;;;;;4961915;28;20439;-74
2022/06/09 09:48:21;;;;;;;7.07;3.60;;;21.50;10.90;;;;;;4969286;28;20552;-75
2022/06/09 09:50:54;;;;;;;10.43;4.10;;;21.50;8.70;;;;;;4968674;28;20473;-75
2022/06/09 09:53:23;;;;;;;9.83;4.03;;;22.20;8.70;;;;;;4967622;28;20184;-75
2022/06/09 09:56:09;;;;;;;9.23;3.60;;;21.50;8.40;;;;;;4989228;28;20580;-75
2022/06/09 09:58:46;;;;;;;9.60;3.57;;;21.50;9.60;;;;;;4989583;28;20513;-75
2022/06/09 10:01:17;;;;;;;9.83;3.60;;;21.50;4.20;;;;;;4988796;28;20911;-75
2022/06/09 10:09:40;;;;;;;6.73;2.60;;;22.10;1.90;;;;;;4993715;28;20551;-75
2022/06/09 10:12:29;;;;;;;7.73;2.80;;;24.20;1.00;;;;;;4993133;28;20501;-74
2022/06/09 10:15:01;;;;;;;10.00;3.20;;;24.40;1.00;;;;;;4976476;28;20518;-75
2022/06/09 10:17:52;;;;;;;6.83;2.87;;;23.70;1.00;;;;;;4967615;28;20461;-75
2022/06/09 10:20:27;;;;;;;10.60;3.17;;;22.80;1.00;;;;;;4973762;28;20415;-74
2022/06/09 10:23:09;;;;;;;3.80;2.53;;;23.00;1.00;;;;;;4972672;28;20417;-75
2022/06/09 10:25:55;;;;;;;6.90;3.30;;;22.20;1.00;;;;;;4972445;28;20418;-75
2022/06/09 10:28:43;;;;;;;7.97;2.80;;;21.70;1.00;;;;;;4981098;28;20592;-75
2022/06/09 10:31:11;;;;;;;5.93;3.13;;;22.00;1.00;;;;;;5007436;28;20429;-76
2022/06/09 10:34:03;;;;;;;6.47;2.80;;;23.30;1.00;;;;;;4978526;28;20411;-75
2022/06/09 10:36:54;;;;;;;7.60;3.07;;;24.50;1.00;;;;;;4973256;28;20953;-75
2022/06/09 10:39:46;;;;;;;7.63;2.87;;;24.70;1.00;;;;;;4965590;28;20978;-75
2022/06/09 10:42:24;;;;;;;4.90;2.80;;;24.30;1.00;;;;;;4968052;28;20435;-75
2022/06/09 10:45:04;;;;;;;11.17;2.93;;;24.90;1.00;;;;;;4969986;28;20484;-74
2022/06/09 10:56:26;;;;;;;9.93;3.73;;;25.10;1.00;;;;;;4973404;28;20971;-76
2022/06/09 10:59:01;;;;;;;11.50;3.67;;;25.10;1.00;;;;;;4972979;28;20414;-75
2022/06/09 11:01:30;;;;;;;9.30;3.63;;;24.50;1.00;;;;;;4971058;28;20897;-75
2022/06/09 11:03:56;;;;;;;7.17;3.00;;;24.30;1.00;;;;;;4972211;28;20472;-75
2022/06/09 11:06:44;;;;;;;6.00;2.50;;;24.40;1.00;;;;;;4972774;28;20446;-76
2022/06/09 11:09:21;;;;;;;7.97;3.33;;;24.40;1.00;;;;;;4972329;28;20693;-75
2022/06/09 11:12:09;;;;;;;5.60;2.60;;;24.90;1.00;;;;;;4970981;28;20457;-76
2022/06/09 11:14:40;;;;;;;6.73;2.90;;;28.00;1.00;;;;;;4972769;28;20414;-77
2022/06/09 11:17:18;;;;;;;8.10;2.80;;;29.70;1.00;;;;;;4968046;28;20844;-75
2022/06/09 11:19:56;;;;;;;10.67;2.93;;;28.50;1.00;;;;;;4983616;28;20169;-76
2022/06/09 11:22:39;;;;;;;8.00;2.90;;;26.80;1.00;;;;;;4991044;28;20567;-76
2022/06/09 11:25:45;;;;;;;11.00;3.40;;;25.30;1.00;;;;;;4990965;28;20410;-76
2022/06/09 11:28:46;;;;;;;6.30;2.70;;;25.10;1.00;;;;;;4990557;28;20562;-74
2022/06/09 11:31:12;;;;;;;12.00;3.10;;;27.70;1.00;;;;;;5006288;28;20453;-76
2022/06/09 11:34:01;;;;;;;10.20;2.90;;;27.50;1.00;;;;;;4989730;28;20445;-75
2022/06/09 11:36:35;;;;;;;9.30;2.97;;;26.70;1.00;;;;;;4991721;28;20244;-75
2022/06/09 11:39:31;;;;;;;8.57;2.77;;;25.20;1.00;;;;;;4991638;28;20413;-76
2022/06/09 11:42:17;;;;;;;5.63;2.40;;;24.90;1.00;;;;;;4991282;28;20421;-76
2022/06/09 11:44:44;;;;;;;9.40;2.30;;;27.70;1.00;;;;;;4978307;28;20866;-76
2022/06/09 11:47:14;;;;;;;7.00;2.87;;;29.10;1.00;;;;;;4963545;28;20474;-74
2022/06/09 11:49:46;;;;;;;4.50;2.20;;;29.40;1.00;;;;;;4971427;28;20565;-76
2022/06/09 11:52:30;;;;;;;5.83;2.50;;;29.20;1.00;;;;;;4969557;28;20181;-75
2022/06/09 11:55:01;;;;;;;10.13;2.47;;;29.90;1.00;;;;;;4973533;28;20630;-76
2022/06/09 11:57:47;;;;;;;4.40;2.07;;;31.90;1.00;;;;;;4971761;28;20210;-76
2022/06/09 12:00:18;;;;;;;7.40;1.93;;;31.40;1.00;;;;;;4972352;28;20160;-74
2022/06/09 12:02:53;;;;;;;8.43;2.10;;;30.20;1.00;;;;;;4970242;28;20230;-76
2022/06/09 12:05:33;;;;;;;4.47;1.90;;;29.10;1.00;;;;;;4969973;28;20257;-76
2022/06/09 12:08:24;;;;;;;6.10;2.30;;;29.00;1.00;;;;;;4971521;28;20708;-76
2022/06/09 12:11:11;;;;;;;5.80;2.10;;;30.20;1.00;;;;;;4971853;28;20189;-76
2022/06/09 12:13:53;;;;;;;5.22;2.17;;;31.90;1.00;;;;;;4971717;28;20206;-76
2022/06/09 12:16:30;;;;;;;6.57;2.00;;;33.30;1.00;;;;;;4963681;28;20219;-77
2022/06/09 12:19:13;;;;;;;4.72;2.10;;;32.50;1.00;;;;;;4970450;28;20535;-76
2022/06/09 12:21:42;;;;;;;7.28;2.45;;;30.50;1.00;;;;;;4970549;28;20263;-76
2022/06/09 12:24:13;;;;;;;7.33;2.20;;;29.50;1.00;;;;;;4970087;28;20178;-76
2022/06/09 12:26:45;;;;;;;9.03;2.20;;;28.30;1.00;;;;;;4965368;28;20534;-75
2022/06/09 12:29:21;;;;;;;6.90;2.50;;;27.80;1.00;;;;;;4969523;28;20265;-76
2022/06/09 12:32:09;;;;;;;3.73;2.13;;;28.10;1.00;;;;;;4969142;28;20191;-75
2022/06/09 12:34:49;;;;;;;5.63;2.20;;;28.60;1.00;;;;;;4970230;28;20284;-76
2022/06/09 12:37:23;;;;;;;3.40;1.67;;;30.30;1.00;;;;;;4970538;28;20183;-76
2022/06/09 12:40:23;;;;;;;10.05;2.35;;;32.40;1.00;;;;;;4970939;28;20215;-76
2022/06/09 12:42:54;;;;;;;3.70;1.73;;;34.50;1.00;;;;;;4948146;28;20637;-76
2022/06/09 12:45:24;;;;;;;4.63;1.52;;;35.50;1.00;;;;;;4965124;28;20270;-76
2022/06/09 12:48:09;;;;;;;9.15;1.88;;;35.90;1.00;;;;;;4968548;28;20353;-76
2022/06/09 12:50:43;;;;;;;2.90;1.42;;;36.80;1.00;;;;;;4970796;28;20242;-78
2022/06/09 12:53:24;;;;;;;2.90;1.50;;;37.30;1.00;;;;;;4968179;28;20249;-76
2022/06/09 12:55:54;;;;;;;4.90;1.70;;;36.90;1.00;;;;;;4971070;28;20293;-76
2022/06/09 12:58:26;;;;;;;5.35;1.73;;;36.80;1.00;;;;;;4971127;28;20176;-77
2022/06/09 13:00:59;;;;;;;4.88;1.60;;;36.80;1.00;;;;;;4971079;28;20542;-77
2022/06/09 13:03:29;;;;;;;4.10;1.75;;;35.90;1.00;;;;;;4969514;28;20245;-76
2022/06/09 13:05:54;;;;;;;3.47;1.60;;;37.00;1.00;;;;;;4969676;28;20721;-77
2022/06/09 13:08:26;;;;;;;5.65;1.52;;;36.30;1.00;;;;;;4968248;28;20206;-76
2022/06/09 13:11:01;;;;;;;3.42;1.70;;;35.50;1.00;;;;;;4969944;28;20642;-77
2022/06/09 13:13:38;;;;;;;4.80;1.70;;;34.70;1.00;;;;;;4970272;28;20166;-75
2022/06/09 13:16:10;;;;;;;4.75;1.90;;;33.60;1.00;;;;;;4968479;28;20655;-77
2022/06/09 13:18:41;;;;;;;6.25;1.90;;;32.50;1.00;;;;;;4969490;28;20587;-77
2022/06/09 13:21:14;;;;;;;8.07;1.80;;;32.20;1.00;;;;;;4969427;28;20195;-77
2022/06/09 13:23:41;;;;;;;7.78;2.05;;;32.60;1.00;;;;;;4968195;28;20199;-77
2022/06/09 13:26:12;;;;;;;5.50;2.00;;;34.20;1.00;;;;;;4970277;28;20203;-78
2022/06/09 13:28:43;;;;;;;4.75;2.00;;;35.20;1.00;;;;;;4968584;28;20222;-78
2022/06/09 13:31:38;;;;;;;6.20;2.55;;;35.70;1.00;;;;;;4969424;28;20222;-78